createdAt,value
2023-03-17T00:02:08.184Z,7.60
2023-03-17T00:04:36.620Z,7.60
2023-03-17T00:07:06.867Z,7.60
2023-03-17T00:09:34.968Z,7.50
2023-03-17T00:12:03.667Z,7.50
2023-03-17T00:14:31.761Z,7.50
2023-03-17T00:16:59.885Z,7.50
2023-03-17T00:19:33.606Z,7.50
2023-03-17T00:22:03.377Z,7.40
2023-03-17T00:24:32.585Z,7.40
2023-03-17T00:27:00.765Z,7.40
2023-03-17T00:29:29.060Z,7.40
2023-03-17T00:31:58.884Z,7.40
2023-03-17T00:34:27.207Z,7.40
2023-03-17T00:36:57.065Z,7.40
2023-03-17T00:39:25.358Z,7.40
2023-03-17T00:41:55.848Z,7.40
2023-03-17T00:44:24.081Z,7.40
2023-03-17T00:46:52.424Z,7.40
2023-03-17T00:49:24.869Z,7.50
2023-03-17T00:51:54.151Z,7.50
2023-03-17T00:54:24.514Z,7.40
2023-03-17T00:56:53.676Z,7.40
2023-03-17T00:59:29.846Z,7.50
2023-03-17T01:01:58.538Z,7.50
2023-03-17T01:04:26.825Z,7.40
2023-03-17T01:06:55.419Z,7.40
2023-03-17T01:09:28.225Z,7.40
2023-03-17T01:11:56.878Z,7.30
2023-03-17T01:14:25.648Z,7.30
2023-03-17T01:16:55.235Z,7.30
2023-03-17T01:19:24.207Z,7.30
2023-03-17T01:21:52.562Z,7.30
2023-03-17T01:24:20.931Z,7.20
2023-03-17T01:26:50.816Z,7.20
2023-03-17T01:29:18.907Z,7.20
2023-03-17T01:31:47.497Z,7.20
2023-03-17T01:34:15.655Z,7.20
2023-03-17T01:36:44.209Z,7.20
2023-03-17T01:39:12.872Z,7.20
2023-03-17T01:41:41.097Z,7.20
2023-03-17T01:44:18.288Z,7.20
2023-03-17T01:46:47.226Z,7.20
2023-03-17T01:49:30.178Z,7.20
2023-03-17T01:52:06.173Z,7.20
2023-03-17T01:54:41.979Z,7.20
2023-03-17T01:57:17.508Z,7.20
2023-03-17T01:59:53.050Z,7.20
2023-03-17T02:02:26.601Z,7.20
2023-03-17T02:04:55.136Z,7.20
2023-03-17T02:07:26.557Z,7.20
2023-03-17T02:09:56.956Z,7.20
2023-03-17T02:12:28.915Z,7.20
2023-03-17T02:15:00.053Z,7.20
2023-03-17T02:17:29.908Z,7.20
2023-03-17T02:19:58.141Z,7.20
2023-03-17T02:22:28.154Z,7.30
2023-03-17T02:25:00.733Z,7.30
2023-03-17T02:27:35.821Z,7.30
2023-03-17T02:30:07.321Z,7.30
2023-03-17T02:32:38.009Z,7.30
2023-03-17T02:35:09.519Z,7.30
2023-03-17T02:37:41.803Z,7.30
2023-03-17T02:40:13.407Z,7.30
2023-03-17T02:42:42.743Z,7.30
2023-03-17T02:45:13.136Z,7.20
2023-03-17T02:47:42.613Z,7.20
2023-03-17T02:50:19.477Z,7.20
2023-03-17T02:52:48.974Z,7.10
2023-03-17T02:55:17.371Z,7.10
2023-03-17T02:57:45.496Z,7.00
2023-03-17T03:00:15.638Z,7.00
2023-03-17T03:02:43.931Z,7.00
2023-03-17T03:05:12.635Z,7.00
2023-03-17T03:07:40.690Z,7.00
2023-03-17T03:10:12.251Z,7.00
2023-03-17T03:12:40.636Z,7.00
2023-03-17T03:15:10.089Z,7.00
2023-03-17T03:17:38.454Z,7.00
2023-03-17T03:20:08.018Z,6.90
2023-03-17T03:22:36.117Z,6.90
2023-03-17T03:25:04.505Z,6.90
2023-03-17T03:27:34.218Z,6.90
2023-03-17T03:30:02.300Z,6.90
2023-03-17T03:32:30.486Z,6.80
2023-03-17T03:34:58.602Z,6.80
2023-03-17T03:37:26.995Z,6.80
2023-03-17T03:39:55.102Z,6.80
2023-03-17T03:42:23.199Z,6.80
2023-03-17T03:44:52.644Z,6.80
2023-03-17T03:47:20.817Z,6.80
2023-03-17T03:49:48.984Z,6.80
2023-03-17T03:52:17.069Z,6.80
2023-03-17T03:54:45.402Z,6.80
2023-03-17T03:57:13.585Z,6.80
2023-03-17T03:59:41.788Z,6.80
2023-03-17T04:02:11.792Z,6.80
2023-03-17T04:04:39.990Z,6.80
2023-03-17T04:07:08.388Z,6.80
2023-03-17T04:09:37.324Z,6.80
2023-03-17T04:12:06.104Z,6.80
2023-03-17T04:14:34.974Z,6.80
2023-03-17T04:17:04.624Z,6.80
2023-03-17T04:19:34.119Z,6.80
2023-03-17T04:22:02.315Z,6.70
2023-03-17T04:24:30.522Z,6.70
2023-03-17T04:26:58.733Z,6.70
2023-03-17T04:29:26.822Z,6.70
2023-03-17T04:31:55.198Z,6.70
2023-03-17T04:34:24.161Z,6.80
2023-03-17T04:36:53.915Z,6.80
2023-03-17T04:39:22.251Z,6.70
2023-03-17T04:41:50.328Z,6.70
2023-03-17T04:44:18.479Z,6.70
2023-03-17T04:46:47.290Z,6.70
2023-03-17T04:49:15.574Z,6.70
2023-03-17T04:51:43.727Z,6.60
2023-03-17T04:54:13.271Z,6.60
2023-03-17T04:56:41.433Z,6.60
2023-03-17T04:59:09.973Z,6.50
2023-03-17T05:01:39.287Z,6.50
2023-03-17T05:04:08.013Z,6.50
2023-03-17T05:06:37.195Z,6.40
2023-03-17T05:09:06.050Z,6.40
2023-03-17T05:11:36.174Z,6.30
2023-03-17T05:14:04.307Z,6.30
2023-03-17T05:16:32.566Z,6.20
2023-03-17T05:19:00.934Z,6.20
2023-03-17T05:21:29.045Z,6.20
2023-03-17T05:23:57.113Z,6.20
2023-03-17T05:26:26.947Z,6.20
2023-03-17T05:28:56.737Z,6.20
2023-03-17T05:31:27.720Z,6.10
2023-03-17T05:33:56.531Z,6.10
2023-03-17T05:36:30.365Z,6.10
2023-03-17T05:38:58.592Z,6.10
2023-03-17T05:41:26.957Z,6.10
2023-03-17T05:43:56.765Z,6.10
2023-03-17T05:46:24.938Z,6.10
2023-03-17T05:48:53.296Z,6.20
2023-03-17T05:51:24.064Z,6.20
2023-03-17T05:53:52.331Z,6.20
2023-03-17T05:56:20.724Z,6.20
2023-03-17T05:58:51.198Z,6.20
2023-03-17T06:01:23.983Z,6.20
2023-03-17T06:03:52.366Z,6.20
2023-03-17T06:06:20.496Z,6.30
2023-03-17T06:08:48.902Z,6.30
2023-03-17T06:11:19.768Z,6.30
2023-03-17T06:13:48.152Z,6.30
2023-03-17T06:16:17.011Z,6.30
2023-03-17T06:18:49.156Z,6.30
2023-03-17T06:21:17.358Z,6.30
2023-03-17T06:23:45.530Z,6.30
2023-03-17T06:26:13.731Z,6.30
2023-03-17T06:28:41.767Z,6.30
2023-03-17T06:31:09.976Z,6.40
2023-03-17T06:33:38.101Z,6.40
2023-03-17T06:36:08.782Z,6.40
2023-03-17T06:38:37.337Z,6.40
2023-03-17T06:41:05.847Z,6.40
2023-03-17T06:43:34.032Z,6.40
2023-03-17T06:46:02.240Z,6.50
2023-03-17T06:48:30.388Z,6.50
2023-03-17T06:50:58.477Z,6.50
2023-03-17T06:53:28.304Z,6.50
2023-03-17T06:55:57.211Z,6.60
2023-03-17T06:58:25.704Z,6.60
2023-03-17T07:00:54.347Z,6.70
2023-03-17T07:03:23.936Z,6.70
2023-03-17T07:05:52.185Z,6.80
2023-03-17T07:08:21.920Z,6.90
2023-03-17T07:10:51.366Z,6.90
2023-03-17T07:13:19.860Z,7.00
2023-03-17T07:15:48.224Z,7.10
2023-03-17T07:18:16.905Z,7.20
2023-03-17T07:20:45.378Z,7.20
2023-03-17T07:23:19.925Z,7.30
2023-03-17T07:25:48.125Z,7.30
2023-03-17T07:28:18.525Z,7.40
2023-03-17T07:30:47.625Z,7.50
2023-03-17T07:33:17.332Z,7.50
2023-03-17T07:35:45.722Z,7.60
2023-03-17T07:38:16.761Z,7.70
2023-03-17T07:40:46.727Z,7.80
2023-03-17T07:43:15.532Z,7.80
2023-03-17T07:45:45.425Z,7.90
2023-03-17T07:48:14.541Z,8.00
2023-03-17T07:50:46.464Z,8.10
2023-03-17T07:53:14.672Z,8.20
2023-03-17T07:55:43.057Z,8.40
2023-03-17T07:58:13.125Z,8.50
2023-03-17T08:00:44.638Z,8.60
2023-03-17T08:03:12.882Z,8.80
2023-03-17T08:05:40.990Z,8.90
2023-03-17T08:08:10.549Z,9.10
2023-03-17T08:10:41.074Z,9.30
2023-03-17T08:13:09.229Z,9.40
2023-03-17T08:15:37.542Z,9.60
2023-03-17T08:18:07.161Z,9.70
2023-03-17T08:20:36.334Z,9.90
2023-03-17T08:23:04.542Z,10.10
2023-03-17T08:25:33.165Z,10.20
2023-03-17T08:28:01.731Z,10.30
2023-03-17T08:30:33.284Z,10.50
2023-03-17T08:33:02.052Z,10.60
2023-03-17T08:35:32.213Z,10.70
2023-03-17T08:38:01.266Z,10.90
2023-03-17T08:40:30.202Z,11.00
2023-03-17T08:42:58.539Z,11.10
2023-03-17T08:45:27.034Z,11.20
2023-03-17T08:47:55.241Z,11.30
2023-03-17T08:50:25.414Z,11.50
2023-03-17T08:52:55.236Z,11.60
2023-03-17T08:55:23.572Z,11.60
2023-03-17T08:57:51.689Z,11.70
2023-03-17T09:00:21.511Z,11.80
2023-03-17T09:02:50.560Z,11.90
2023-03-17T09:05:19.532Z,12.00
2023-03-17T09:07:48.970Z,12.20
2023-03-17T09:10:22.477Z,12.20
2023-03-17T09:12:51.572Z,12.40
2023-03-17T09:15:21.112Z,12.50
2023-03-17T09:17:49.365Z,12.60
2023-03-17T09:20:18.510Z,12.80
2023-03-17T09:22:47.717Z,13.00
2023-03-17T09:25:17.803Z,13.00
2023-03-17T09:27:46.103Z,13.20
2023-03-17T09:30:15.055Z,13.30
2023-03-17T09:32:44.844Z,13.40
2023-03-17T09:35:13.303Z,13.50
2023-03-17T09:37:41.727Z,13.50
2023-03-17T09:40:19.927Z,13.60
2023-03-17T09:42:59.671Z,13.70
2023-03-17T09:45:34.557Z,13.80
2023-03-17T09:48:23.090Z,13.90
2023-03-17T09:50:58.797Z,14.00
2023-03-17T09:53:34.189Z,14.10
2023-03-17T09:56:12.400Z,14.10
2023-03-17T09:58:50.699Z,14.20
2023-03-17T10:01:19.474Z,14.30
2023-03-17T10:03:48.278Z,14.30
2023-03-17T10:06:37.612Z,14.40
2023-03-17T10:09:19.153Z,14.50
2023-03-17T10:11:55.534Z,14.60
2023-03-17T10:14:39.761Z,14.70
2023-03-17T10:17:18.394Z,14.70
2023-03-17T10:19:57.723Z,14.80
2023-03-17T10:22:33.440Z,14.80
2023-03-17T10:25:09.159Z,14.90
2023-03-17T10:27:39.835Z,14.90
2023-03-17T10:30:17.132Z,15.00
2023-03-17T10:32:46.588Z,15.10
2023-03-17T10:35:17.254Z,15.20
2023-03-17T10:37:48.327Z,15.30
2023-03-17T10:40:29.271Z,15.30
2023-03-17T10:43:08.004Z,15.40
2023-03-17T10:45:43.273Z,15.50
2023-03-17T10:48:20.003Z,15.60
2023-03-17T10:50:49.536Z,15.60
2023-03-17T10:53:27.962Z,15.70
2023-03-17T10:56:00.918Z,15.80
2023-03-17T10:58:44.177Z,15.80
2023-03-17T11:01:22.745Z,15.90
2023-03-17T11:03:51.481Z,16.00
2023-03-17T11:06:27.450Z,16.10
2023-03-17T11:08:56.830Z,16.20
2023-03-17T11:11:29.718Z,16.40
2023-03-17T11:14:07.484Z,16.40
2023-03-17T11:16:38.836Z,16.40
2023-03-17T11:19:16.053Z,16.50
2023-03-17T11:21:59.779Z,16.50
2023-03-17T11:24:33.667Z,16.60
2023-03-17T11:27:11.191Z,16.60
2023-03-17T11:30:02.343Z,16.70
2023-03-17T11:32:38.462Z,16.70
2023-03-17T11:35:40.078Z,16.80
2023-03-17T11:38:24.308Z,16.90
2023-03-17T11:41:34.863Z,17.00
2023-03-17T11:44:38.479Z,17.10
2023-03-17T11:47:22.065Z,17.20
2023-03-17T11:50:03.047Z,17.30
2023-03-17T11:52:42.565Z,17.50
2023-03-17T11:55:19.788Z,17.60
2023-03-17T11:57:56.715Z,17.60
2023-03-17T12:00:33.513Z,17.60
2023-03-17T12:03:18.597Z,17.60
2023-03-17T12:05:52.482Z,17.60
2023-03-17T12:08:34.205Z,17.60
2023-03-17T12:11:09.017Z,17.60
2023-03-17T12:13:43.012Z,17.60
2023-03-17T12:16:19.523Z,17.60
2023-03-17T12:19:02.264Z,17.50
2023-03-17T12:21:38.516Z,17.50
2023-03-17T12:24:17.169Z,17.50
2023-03-17T12:26:55.480Z,17.50
2023-03-17T12:29:40.734Z,17.60
2023-03-17T12:32:19.814Z,17.70
2023-03-17T12:34:57.093Z,17.70
2023-03-17T12:37:30.033Z,17.80
2023-03-17T12:40:07.158Z,17.80
2023-03-17T12:42:46.972Z,17.90
2023-03-17T12:45:49.328Z,17.90
2023-03-17T12:48:44.165Z,18.00
2023-03-17T12:51:49.997Z,17.90
2023-03-17T12:54:26.336Z,17.90
2023-03-17T12:57:03.226Z,17.90
2023-03-17T12:59:33.901Z,17.90
2023-03-17T13:02:18.784Z,18.00
2023-03-17T13:04:57.809Z,18.00
2023-03-17T13:07:35.208Z,17.90
2023-03-17T13:10:37.149Z,17.90
2023-03-17T13:13:12.396Z,17.90
2023-03-17T13:16:01.033Z,17.90
2023-03-17T13:18:51.382Z,17.80
2023-03-17T13:21:33.185Z,17.80
2023-03-17T13:24:24.592Z,17.80
2023-03-17T13:27:00.880Z,17.80
2023-03-17T13:29:47.246Z,17.80
2023-03-17T13:32:56.947Z,17.80
2023-03-17T13:35:42.555Z,17.80
2023-03-17T13:39:05.087Z,17.80
2023-03-17T13:41:52.866Z,17.80
2023-03-17T13:44:35.324Z,17.90
2023-03-17T13:47:34.655Z,17.80
2023-03-17T13:50:09.435Z,17.80
2023-03-17T13:52:43.872Z,17.80
2023-03-17T13:55:40.759Z,17.80
2023-03-17T13:58:33.109Z,17.80
2023-03-17T14:01:08.926Z,17.90
2023-03-17T14:03:48.579Z,17.80
2023-03-17T14:06:22.279Z,17.80
2023-03-17T14:08:55.900Z,17.80
2023-03-17T14:11:38.444Z,17.90
2023-03-17T14:14:32.570Z,17.80
2023-03-17T14:17:11.958Z,17.80
2023-03-17T14:19:41.834Z,17.80
2023-03-17T14:22:23.877Z,17.70
2023-03-17T14:24:57.148Z,17.70
2023-03-17T14:27:26.940Z,17.60
2023-03-17T14:29:56.553Z,17.60
2023-03-17T14:32:26.604Z,17.60
2023-03-17T14:35:00.263Z,17.60
2023-03-17T14:37:29.624Z,17.60
2023-03-17T14:39:59.989Z,17.60
2023-03-17T14:42:32.271Z,17.50
2023-03-17T14:45:09.514Z,17.50
2023-03-17T14:47:43.169Z,17.50
2023-03-17T14:50:19.293Z,17.50
2023-03-17T14:52:47.575Z,17.50
2023-03-17T14:55:17.303Z,17.50
2023-03-17T14:57:52.711Z,17.60
2023-03-17T15:00:36.255Z,17.60
2023-03-17T15:03:19.135Z,17.60
2023-03-17T15:05:48.808Z,17.60
2023-03-17T15:08:42.617Z,17.70
2023-03-17T15:11:24.256Z,17.70
2023-03-17T15:14:04.108Z,17.70
2023-03-17T15:16:37.159Z,17.70
2023-03-17T15:19:09.808Z,17.70
2023-03-17T15:21:42.034Z,17.70
2023-03-17T15:24:41.637Z,17.70
2023-03-17T15:27:18.628Z,17.70
2023-03-17T15:29:48.231Z,17.60
2023-03-17T15:32:21.069Z,17.60
2023-03-17T15:34:51.478Z,17.60
2023-03-17T15:37:23.164Z,17.70
2023-03-17T15:39:52.865Z,17.70
2023-03-17T15:42:24.713Z,17.70
2023-03-17T15:44:53.104Z,17.70
2023-03-17T15:47:26.340Z,17.80
2023-03-17T15:50:00.033Z,17.80
2023-03-17T15:52:29.908Z,17.80
2023-03-17T15:55:00.613Z,17.90
2023-03-17T15:57:28.919Z,17.90
2023-03-17T15:59:57.090Z,17.90
2023-03-17T16:02:32.492Z,17.80
2023-03-17T16:05:02.993Z,17.80
2023-03-17T16:07:31.387Z,17.70
2023-03-17T16:09:59.726Z,17.70
2023-03-17T16:12:27.944Z,17.60
2023-03-17T16:14:56.135Z,17.50
2023-03-17T16:17:29.915Z,17.40
2023-03-17T16:19:59.722Z,17.30
2023-03-17T16:22:42.057Z,17.20
2023-03-17T16:25:24.764Z,17.10
2023-03-17T16:27:55.428Z,17.10
2023-03-17T16:30:26.358Z,17.00
2023-03-17T16:33:00.581Z,16.90
2023-03-17T16:35:29.723Z,16.90
2023-03-17T16:37:57.882Z,16.80
2023-03-17T16:40:29.792Z,16.80
2023-03-17T16:42:58.102Z,16.80
2023-03-17T16:45:32.679Z,16.70
2023-03-17T16:48:06.081Z,16.70
2023-03-17T16:50:36.582Z,16.60
2023-03-17T16:53:04.957Z,16.50
2023-03-17T16:55:33.386Z,16.50
2023-03-17T16:58:07.450Z,16.40
2023-03-17T17:00:35.780Z,16.30
2023-03-17T17:03:05.600Z,16.20
2023-03-17T17:05:33.972Z,16.10
2023-03-17T17:08:02.514Z,16.10
2023-03-17T17:10:34.090Z,16.00
2023-03-17T17:13:02.627Z,16.00
2023-03-17T17:15:31.844Z,16.00
2023-03-17T17:18:06.852Z,16.00
2023-03-17T17:20:39.223Z,16.00
2023-03-17T17:23:13.271Z,15.90
2023-03-17T17:25:42.298Z,15.90
2023-03-17T17:28:11.168Z,15.90
2023-03-17T17:30:42.884Z,15.80
2023-03-17T17:33:13.613Z,15.80
2023-03-17T17:35:42.306Z,15.80
2023-03-17T17:38:19.991Z,15.70
2023-03-17T17:40:49.148Z,15.70
2023-03-17T17:43:19.049Z,15.70
2023-03-17T17:45:49.484Z,15.60
2023-03-17T17:48:23.509Z,15.60
2023-03-17T17:50:53.108Z,15.50
2023-03-17T17:53:21.896Z,15.50
2023-03-17T17:55:51.543Z,15.50
2023-03-17T17:58:23.422Z,15.50
2023-03-17T18:00:55.000Z,15.40
2023-03-17T18:03:25.473Z,15.40
2023-03-17T18:05:54.592Z,15.30
2023-03-17T18:08:24.194Z,15.30
2023-03-17T18:10:55.627Z,15.20
2023-03-17T18:13:24.008Z,15.20
2023-03-17T18:15:52.924Z,15.20
2023-03-17T18:18:21.163Z,15.20
2023-03-17T18:20:51.121Z,15.10
2023-03-17T18:23:20.160Z,15.10
2023-03-17T18:25:49.281Z,15.10
2023-03-17T18:28:17.882Z,15.00
2023-03-17T18:30:46.906Z,15.00
2023-03-17T18:33:20.905Z,15.00
2023-03-17T18:35:55.294Z,15.00
2023-03-17T18:38:23.674Z,14.90
2023-03-17T18:40:52.254Z,14.90
2023-03-17T18:43:20.482Z,14.90
2023-03-17T18:45:48.853Z,14.90
2023-03-17T18:48:17.224Z,14.90
2023-03-17T18:50:45.472Z,14.90
2023-03-17T18:53:15.091Z,14.80
2023-03-17T18:55:43.272Z,14.80
2023-03-17T18:58:11.566Z,14.80
2023-03-17T19:00:40.168Z,14.80
2023-03-17T19:03:08.432Z,14.70
2023-03-17T19:05:39.404Z,14.70
2023-03-17T19:08:08.227Z,14.60
2023-03-17T19:10:38.105Z,14.60
2023-03-17T19:13:10.160Z,14.60
2023-03-17T19:15:38.598Z,14.60
2023-03-17T19:18:07.844Z,14.60
2023-03-17T19:20:37.853Z,14.60
2023-03-17T19:23:06.951Z,14.60
2023-03-17T19:25:35.973Z,14.50
2023-03-17T19:28:06.263Z,14.50
2023-03-17T19:30:35.212Z,14.60
2023-03-17T19:33:03.816Z,14.60
2023-03-17T19:35:32.473Z,14.60
2023-03-17T19:38:01.160Z,14.50
2023-03-17T19:40:29.593Z,14.50
2023-03-17T19:42:57.908Z,14.50
2023-03-17T19:45:27.608Z,14.40
2023-03-17T19:47:56.068Z,14.40
2023-03-17T19:50:24.745Z,14.30
2023-03-17T19:52:53.296Z,14.30
2023-03-17T19:55:21.722Z,14.30
2023-03-17T19:57:50.903Z,14.20
2023-03-17T20:00:20.859Z,14.20
2023-03-17T20:02:50.870Z,14.10
2023-03-17T20:05:19.720Z,14.10
2023-03-17T20:07:48.369Z,14.10
2023-03-17T20:10:16.740Z,14.00
2023-03-17T20:12:45.778Z,14.00
2023-03-17T20:15:16.329Z,14.00
2023-03-17T20:17:44.736Z,14.00
2023-03-17T20:20:15.446Z,13.90
2023-03-17T20:22:43.924Z,13.90
2023-03-17T20:25:12.980Z,13.90
2023-03-17T20:27:41.654Z,13.90
2023-03-17T20:30:12.557Z,14.00
2023-03-17T20:32:41.105Z,14.00
2023-03-17T20:35:10.738Z,14.00
2023-03-17T20:37:40.572Z,14.00
2023-03-17T20:40:10.804Z,14.00
2023-03-17T20:42:38.981Z,14.00
2023-03-17T20:45:08.718Z,14.00
2023-03-17T20:47:39.308Z,13.90
2023-03-17T20:50:10.025Z,13.90
2023-03-17T20:52:40.918Z,13.80
2023-03-17T20:55:13.840Z,13.80
2023-03-17T20:57:43.115Z,13.70
2023-03-17T21:00:17.783Z,13.70
2023-03-17T21:02:49.982Z,13.60
2023-03-17T21:05:23.224Z,13.60
2023-03-17T21:07:53.136Z,13.60
2023-03-17T21:10:21.777Z,13.60
2023-03-17T21:12:50.322Z,13.60
2023-03-17T21:15:19.743Z,13.60
2023-03-17T21:17:48.385Z,13.60
2023-03-17T21:20:17.633Z,13.60
2023-03-17T21:22:45.950Z,13.60
2023-03-17T21:25:15.778Z,13.60
2023-03-17T21:27:44.181Z,13.60
2023-03-17T21:30:15.681Z,13.70
2023-03-17T21:32:44.033Z,13.60
2023-03-17T21:35:12.640Z,13.70
2023-03-17T21:37:41.059Z,13.60
2023-03-17T21:40:13.589Z,13.70
2023-03-17T21:42:43.739Z,13.60
2023-03-17T21:45:12.507Z,13.60
2023-03-17T21:47:41.851Z,13.60
2023-03-17T21:50:11.639Z,13.50
2023-03-17T21:52:39.878Z,13.50
2023-03-17T21:55:09.351Z,13.60
2023-03-17T21:57:39.141Z,13.50
2023-03-17T22:00:11.863Z,13.50
2023-03-17T22:02:43.475Z,13.60
2023-03-17T22:05:12.137Z,13.50
2023-03-17T22:07:40.989Z,13.50
2023-03-17T22:10:11.321Z,13.50
2023-03-17T22:12:39.706Z,13.40
2023-03-17T22:15:11.029Z,13.40
2023-03-17T22:17:39.678Z,13.40
2023-03-17T22:20:08.985Z,13.30
2023-03-17T22:22:37.249Z,13.30
2023-03-17T22:25:06.647Z,13.30
2023-03-17T22:27:34.939Z,13.30
2023-03-17T22:30:03.239Z,13.30
2023-03-17T22:32:33.358Z,13.30
2023-03-17T22:35:01.538Z,13.20
2023-03-17T22:37:30.632Z,13.20
2023-03-17T22:40:02.432Z,13.20
2023-03-17T22:42:30.968Z,13.20
2023-03-17T22:44:59.528Z,13.20
2023-03-17T22:47:27.835Z,13.20
2023-03-17T22:49:57.385Z,13.20
2023-03-17T22:52:28.169Z,13.20
2023-03-17T22:54:56.405Z,13.20
2023-03-17T22:57:24.482Z,13.20
2023-03-17T22:59:55.095Z,13.20
2023-03-17T23:02:23.459Z,13.20
2023-03-17T23:04:51.475Z,13.10
2023-03-17T23:07:21.214Z,13.20
2023-03-17T23:09:49.325Z,13.10
2023-03-17T23:12:17.699Z,13.10
2023-03-17T23:14:46.594Z,13.00
2023-03-17T23:17:14.765Z,13.00
2023-03-17T23:19:42.851Z,13.00
2023-03-17T23:22:11.153Z,13.00
2023-03-17T23:24:40.586Z,13.00
2023-03-17T23:27:09.052Z,13.00
2023-03-17T23:29:37.768Z,12.90
2023-03-17T23:32:14.009Z,12.90
2023-03-17T23:34:42.224Z,12.90
2023-03-17T23:37:10.465Z,12.90
2023-03-17T23:39:41.509Z,12.90
2023-03-17T23:42:09.959Z,12.90
2023-03-17T23:44:38.198Z,12.90
2023-03-17T23:47:07.398Z,12.90
2023-03-17T23:49:35.524Z,12.80
2023-03-17T23:52:04.570Z,12.80
2023-03-17T23:54:33.821Z,12.80
2023-03-17T23:57:03.449Z,12.80
2023-03-17T23:59:31.798Z,12.80
